createdAt,value
2018-09-08T00:00:31.009Z,60470.04
2018-09-08T00:03:00.814Z,60468.00
2018-09-08T00:05:29.303Z,60470.04
2018-09-08T00:07:57.558Z,60491.38
2018-09-08T00:10:25.855Z,60458.86
2018-09-08T00:12:54.239Z,60458.86
2018-09-08T00:15:27.683Z,60462.92
2018-09-08T00:18:01.259Z,60472.07
2018-09-08T00:20:34.762Z,60444.63
2018-09-08T00:23:08.340Z,60485.28
2018-09-08T00:25:41.948Z,60468.00
2018-09-08T00:28:15.339Z,60470.04
2018-09-08T00:30:43.795Z,60479.18
2018-09-08T00:33:12.026Z,60469.02
2018-09-08T00:35:40.270Z,60476.13
2018-09-08T00:38:08.475Z,60487.31
2018-09-08T00:40:36.727Z,60480.20
2018-09-08T00:43:04.937Z,60507.64
2018-09-08T00:45:33.139Z,60499.50
2018-09-08T00:48:01.376Z,60507.64
2018-09-08T00:50:29.564Z,60465.97
2018-09-08T00:52:57.766Z,60456.82
2018-09-08T00:55:26.015Z,60463.94
2018-09-08T00:57:54.193Z,60459.87
2018-09-08T01:00:22.381Z,60453.78
2018-09-08T01:02:50.583Z,60498.49
2018-09-08T01:05:18.751Z,60490.36
2018-09-08T01:07:46.952Z,60479.18
2018-09-08T01:10:15.119Z,60468.00
2018-09-08T01:12:43.298Z,60480.20
2018-09-08T01:15:11.499Z,60462.92
2018-09-08T01:17:39.713Z,60503.57
2018-09-08T01:20:07.942Z,60468.00
2018-09-08T01:22:36.142Z,60481.21
2018-09-08T01:25:04.335Z,60500.52
2018-09-08T01:27:32.530Z,60482.23
2018-09-08T01:30:00.742Z,60475.12
2018-09-08T01:32:28.922Z,60499.50
2018-09-08T01:34:57.115Z,60477.15
2018-09-08T01:37:25.299Z,60464.96
2018-09-08T01:39:53.542Z,60482.23
2018-09-08T01:42:21.759Z,60493.41
2018-09-08T01:44:49.970Z,60478.16
2018-09-08T01:47:18.203Z,60501.54
2018-09-08T01:49:46.383Z,60498.49
2018-09-08T01:52:14.595Z,60483.25
2018-09-08T01:54:42.783Z,60506.62
2018-09-08T01:57:10.981Z,60468.00
2018-09-08T01:59:39.155Z,60475.12
2018-09-08T02:02:07.355Z,60483.25
2018-09-08T02:04:35.535Z,60486.29
2018-09-08T02:07:03.737Z,60494.43
2018-09-08T02:09:31.975Z,60498.49
2018-09-08T02:12:00.178Z,60461.91
2018-09-08T02:14:28.341Z,60495.44
2018-09-08T02:16:56.529Z,60494.43
2018-09-08T02:19:24.690Z,60491.38
2018-09-08T02:21:52.883Z,60500.52
2018-09-08T02:24:21.082Z,60471.05
2018-09-08T02:26:49.292Z,60468.00
2018-09-08T02:29:17.486Z,60499.50
2018-09-08T02:31:45.699Z,60489.34
2018-09-08T02:34:13.892Z,60497.47
2018-09-08T02:36:42.072Z,60483.25
2018-09-08T02:39:10.616Z,60495.44
2018-09-08T02:41:38.815Z,60495.44
2018-09-08T02:44:07.156Z,60500.52
2018-09-08T02:46:35.387Z,60489.34
2018-09-08T02:49:03.601Z,60514.75
2018-09-08T02:51:30.742Z,60482.23
2018-09-08T02:53:57.831Z,60489.34
2018-09-08T02:56:24.950Z,60490.36
2018-09-08T02:58:52.069Z,60501.54
2018-09-08T03:01:19.198Z,60503.57
2018-09-08T03:03:46.315Z,60496.46
2018-09-08T03:06:13.437Z,60493.41
2018-09-08T03:08:40.571Z,60517.80
2018-09-08T03:11:07.683Z,60493.41
2018-09-08T03:13:34.802Z,60479.18
2018-09-08T03:16:01.940Z,60495.44
2018-09-08T03:18:29.071Z,60488.33
2018-09-08T03:20:56.206Z,60498.49
2018-09-08T03:23:23.315Z,60484.26
2018-09-08T03:25:50.427Z,60491.38
2018-09-08T03:28:17.557Z,60487.31
2018-09-08T03:30:44.682Z,60503.57
2018-09-08T03:33:11.821Z,60486.29
2018-09-08T03:35:38.927Z,60453.78
2018-09-08T03:38:06.051Z,60476.13
2018-09-08T03:40:33.177Z,60491.38
2018-09-08T03:43:00.267Z,60523.89
2018-09-08T03:45:27.385Z,60479.18
2018-09-08T03:47:54.505Z,60520.85
2018-09-08T03:50:21.614Z,60515.77
2018-09-08T03:52:48.735Z,60463.94
2018-09-08T03:55:15.847Z,60500.52
2018-09-08T03:57:42.965Z,60474.10
2018-09-08T04:00:10.090Z,60484.26
2018-09-08T04:02:38.268Z,60505.60
2018-09-08T04:05:06.491Z,60479.18
2018-09-08T04:07:34.777Z,60510.68
2018-09-08T04:10:02.998Z,60517.80
2018-09-08T04:12:31.196Z,60473.09
2018-09-08T04:14:59.386Z,60482.23
2018-09-08T04:17:27.570Z,60498.49
2018-09-08T04:19:55.744Z,60488.33
2018-09-08T04:22:29.341Z,60501.54
2018-09-08T04:24:57.511Z,60459.87
2018-09-08T04:27:25.747Z,60514.75
2018-09-08T04:29:53.971Z,60500.52
2018-09-08T04:32:22.168Z,60520.85
2018-09-08T04:34:50.358Z,60516.78
2018-09-08T04:37:18.594Z,60464.96
2018-09-08T04:39:46.815Z,60493.41
2018-09-08T04:42:15.033Z,60520.85
2018-09-08T04:44:43.239Z,60488.33
2018-09-08T04:47:11.430Z,60488.33
2018-09-08T04:49:39.761Z,60494.43
2018-09-08T04:52:07.969Z,60509.67
2018-09-08T04:54:36.162Z,60502.55
2018-09-08T04:57:04.548Z,60499.50
2018-09-08T04:59:32.764Z,60501.54
2018-09-08T05:02:00.948Z,60526.95
2018-09-08T05:04:29.167Z,60508.65
2018-09-08T05:06:57.368Z,60539.14
2018-09-08T05:09:25.546Z,60498.49
2018-09-08T05:11:53.784Z,60502.55
2018-09-08T05:14:21.977Z,60498.49
2018-09-08T05:16:50.158Z,60477.15
2018-09-08T05:19:18.357Z,60493.41
2018-09-08T05:21:46.554Z,60490.36
2018-09-08T05:24:14.923Z,60491.38
2018-09-08T05:26:43.299Z,60495.44
2018-09-08T05:29:11.497Z,60516.78
2018-09-08T05:31:39.671Z,60500.52
2018-09-08T05:34:07.871Z,60521.86
2018-09-08T05:36:36.071Z,60500.52
2018-09-08T05:39:04.582Z,60501.54
2018-09-08T05:41:32.805Z,60504.59
2018-09-08T05:44:01.017Z,60507.64
2018-09-08T05:46:29.183Z,60497.47
2018-09-08T05:48:57.480Z,60483.25
2018-09-08T05:51:25.590Z,60513.73
2018-09-08T05:53:53.843Z,60474.10
2018-09-08T05:56:22.041Z,60475.12
2018-09-08T05:58:50.238Z,60479.18
2018-09-08T06:01:18.428Z,60486.29
2018-09-08T06:03:46.854Z,60501.54
2018-09-08T06:06:15.159Z,60497.47
2018-09-08T06:08:43.349Z,60505.60
2018-09-08T06:11:11.527Z,60510.68
2018-09-08T06:13:39.728Z,60512.72
2018-09-08T06:16:07.973Z,60505.60
2018-09-08T06:18:36.176Z,60470.04
2018-09-08T06:21:04.406Z,60501.54
2018-09-08T06:23:32.663Z,60501.54
2018-09-08T06:26:00.849Z,60496.46
2018-09-08T06:28:29.099Z,60503.57
2018-09-08T06:30:57.225Z,60473.09
2018-09-08T06:33:25.449Z,60502.55
2018-09-08T06:35:53.843Z,60469.02
2018-09-08T06:38:22.125Z,60488.33
2018-09-08T06:40:50.287Z,60447.68
2018-09-08T06:43:18.475Z,60499.50
2018-09-08T06:45:46.755Z,60509.67
2018-09-08T06:48:15.016Z,60513.73
2018-09-08T06:50:43.183Z,60466.99
2018-09-08T06:53:11.396Z,60510.68
2018-09-08T06:55:39.591Z,60471.05
2018-09-08T06:58:08.069Z,60460.89
2018-09-08T07:00:36.281Z,60478.16
2018-09-08T07:03:04.451Z,60483.25
2018-09-08T07:05:32.647Z,60482.23
2018-09-08T07:08:00.846Z,60469.02
2018-09-08T07:10:29.038Z,60492.39
2018-09-08T07:12:57.354Z,60480.20
2018-09-08T07:15:25.541Z,60496.46
2018-09-08T07:17:53.731Z,60455.81
2018-09-08T07:20:21.954Z,60473.09
2018-09-08T07:22:50.147Z,60483.25
2018-09-08T07:25:18.351Z,60489.34
2018-09-08T07:27:46.546Z,60466.99
2018-09-08T07:30:14.743Z,60471.05
2018-09-08T07:32:42.965Z,60474.10
2018-09-08T07:35:11.183Z,60443.61
2018-09-08T07:37:39.373Z,60498.49
2018-09-08T07:40:07.654Z,60472.07
2018-09-08T07:42:35.848Z,60477.15
2018-09-08T07:45:04.063Z,60454.79
2018-09-08T07:47:32.281Z,60449.71
2018-09-08T07:50:00.475Z,60468.00
2018-09-08T07:52:28.671Z,60455.81
2018-09-08T07:54:56.868Z,60465.97
2018-09-08T07:57:25.062Z,60436.50
2018-09-08T07:59:53.237Z,60479.18
2018-09-08T08:02:21.461Z,60451.75
2018-09-08T08:04:49.651Z,60456.82
2018-09-08T08:07:17.861Z,60441.58
2018-09-08T08:09:46.370Z,60451.75
2018-09-08T08:12:14.668Z,60439.55
2018-09-08T08:14:42.865Z,60453.78
2018-09-08T08:17:11.063Z,60433.45
2018-09-08T08:19:39.251Z,60459.87
2018-09-08T08:22:07.447Z,60435.48
2018-09-08T08:24:35.700Z,60451.75
2018-09-08T08:27:03.877Z,60441.58
2018-09-08T08:29:32.090Z,60464.96
2018-09-08T08:32:00.295Z,60451.75
2018-09-08T08:34:28.646Z,60430.40
2018-09-08T08:36:56.838Z,60432.44
2018-09-08T08:39:25.019Z,60433.45
2018-09-08T08:41:53.199Z,60434.47
2018-09-08T08:44:21.407Z,60432.44
2018-09-08T08:46:49.582Z,60424.31
2018-09-08T08:49:17.784Z,60431.42
2018-09-08T08:51:57.132Z,60408.05
2018-09-08T08:54:31.283Z,60424.31
2018-09-08T08:56:59.490Z,60420.24
2018-09-08T08:59:27.717Z,60429.39
2018-09-08T09:01:55.911Z,60430.40
2018-09-08T09:04:24.132Z,60410.08
2018-09-08T09:06:52.349Z,60411.10
2018-09-08T09:09:21.777Z,60410.08
2018-09-08T09:11:50.111Z,60402.97
2018-09-08T09:14:18.251Z,60392.80
2018-09-08T09:16:46.423Z,60412.11
2018-09-08T09:19:42.223Z,60382.64
2018-09-08T09:22:22.923Z,60416.18
2018-09-08T09:25:04.077Z,60367.40
2018-09-08T09:27:33.479Z,60381.63
2018-09-08T09:30:02.168Z,60366.39
2018-09-08T09:32:30.331Z,60381.63
2018-09-08T09:34:58.560Z,60408.05
2018-09-08T09:37:26.868Z,60388.74
2018-09-08T09:39:55.983Z,60380.61
2018-09-08T09:42:24.195Z,60357.24
2018-09-08T09:44:52.397Z,60369.43
2018-09-08T09:47:20.618Z,60377.56
2018-09-08T09:49:48.883Z,60406.02
2018-09-08T09:52:17.059Z,60397.89
2018-09-08T09:54:45.260Z,60379.59
2018-09-08T09:57:13.426Z,60361.30
2018-09-08T09:59:41.615Z,60378.58
2018-09-08T10:02:44.271Z,60360.29
2018-09-08T10:05:15.208Z,60374.52
2018-09-08T10:07:43.500Z,60351.14
2018-09-08T10:10:13.597Z,60331.84
2018-09-08T10:12:41.839Z,60345.04
2018-09-08T10:15:10.395Z,60342.00
2018-09-08T10:17:39.340Z,60284.07
2018-09-08T10:20:09.200Z,60303.38
2018-09-08T10:22:37.394Z,60310.50
2018-09-08T10:25:06.415Z,60304.40
2018-09-08T10:27:34.644Z,60296.27
2018-09-08T10:30:03.347Z,60289.16
2018-09-08T10:32:31.063Z,60311.51
2018-09-08T10:34:59.292Z,60321.67
2018-09-08T10:37:27.499Z,60352.16
2018-09-08T10:39:55.719Z,60345.04
2018-09-08T10:42:23.919Z,60326.75
2018-09-08T10:44:52.291Z,60314.56
2018-09-08T10:47:20.514Z,60297.29
2018-09-08T10:49:48.893Z,60304.40
2018-09-08T10:52:28.287Z,60328.79
2018-09-08T10:54:56.469Z,60323.71
2018-09-08T10:57:24.676Z,60308.46
2018-09-08T10:59:52.900Z,60322.69
2018-09-08T11:02:21.455Z,60318.62
2018-09-08T11:04:49.320Z,60298.30
2018-09-08T11:07:17.539Z,60280.01
2018-09-08T11:09:45.742Z,60307.45
2018-09-08T11:12:13.927Z,60298.30
2018-09-08T11:14:42.115Z,60293.22
2018-09-08T11:17:10.285Z,60299.32
2018-09-08T11:19:38.468Z,60278.99
2018-09-08T11:22:06.671Z,60281.03
2018-09-08T11:24:34.863Z,60282.04
2018-09-08T11:27:03.052Z,60302.37
2018-09-08T11:29:31.236Z,60299.32
2018-09-08T11:31:59.411Z,60302.37
2018-09-08T11:34:27.616Z,60294.24
2018-09-08T11:36:55.835Z,60281.03
2018-09-08T11:39:24.031Z,60276.96
2018-09-08T11:41:52.243Z,60289.16
2018-09-08T11:44:20.422Z,60312.53
2018-09-08T11:46:48.607Z,60302.37
2018-09-08T11:49:16.787Z,60312.53
2018-09-08T11:51:45.354Z,60302.37
2018-09-08T11:54:13.565Z,60296.27
2018-09-08T11:56:41.880Z,60296.27
2018-09-08T11:59:10.059Z,60281.03
2018-09-08T12:01:38.291Z,60285.09
2018-09-08T12:04:06.749Z,60300.34
2018-09-08T12:06:34.938Z,60289.16
2018-09-08T12:09:03.293Z,60283.06
2018-09-08T12:11:32.312Z,60285.09
2018-09-08T12:14:00.534Z,60302.37
2018-09-08T12:16:28.685Z,60276.96
2018-09-08T12:18:56.897Z,60269.85
2018-09-08T12:21:25.071Z,60269.85
2018-09-08T12:23:53.283Z,60273.91
2018-09-08T12:26:21.512Z,60263.75
2018-09-08T12:28:49.940Z,60263.75
2018-09-08T12:31:18.182Z,60286.11
2018-09-08T12:33:46.380Z,60277.98
2018-09-08T12:36:14.569Z,60274.93
2018-09-08T12:38:42.824Z,60272.90
2018-09-08T12:41:11.067Z,60297.29
2018-09-08T12:43:40.318Z,60278.99
2018-09-08T12:46:08.568Z,60268.83
2018-09-08T12:48:36.840Z,60282.04
2018-09-08T12:51:05.636Z,60277.98
2018-09-08T12:53:34.776Z,60264.77
2018-09-08T12:56:02.978Z,60265.79
2018-09-08T12:58:31.159Z,60249.53
2018-09-08T13:00:59.627Z,60260.71
2018-09-08T13:03:28.133Z,60257.66
2018-09-08T13:05:56.319Z,60280.01
2018-09-08T13:08:24.621Z,60285.09
2018-09-08T13:10:52.948Z,60269.85
2018-09-08T13:13:21.258Z,60262.74
2018-09-08T13:15:49.484Z,60260.71
2018-09-08T13:18:17.684Z,60276.96
2018-09-08T13:20:45.887Z,60275.95
2018-09-08T13:23:14.084Z,60281.03
2018-09-08T13:25:42.302Z,60265.79
2018-09-08T13:28:10.487Z,60297.29
2018-09-08T13:30:38.721Z,60258.67
2018-09-08T13:33:06.984Z,60259.69
2018-09-08T13:35:35.210Z,60263.75
2018-09-08T13:38:03.384Z,60269.85
2018-09-08T13:40:31.562Z,60265.79
2018-09-08T13:42:59.740Z,60259.69
2018-09-08T13:45:27.925Z,60266.80
2018-09-08T13:47:56.112Z,60254.61
2018-09-08T13:50:24.299Z,60284.07
2018-09-08T13:52:52.480Z,60262.74
2018-09-08T13:55:20.653Z,60260.71
2018-09-08T13:57:48.843Z,60282.04
2018-09-08T14:00:17.014Z,60280.01
2018-09-08T14:02:45.203Z,60263.75
2018-09-08T14:05:13.400Z,60259.69
2018-09-08T14:07:47.951Z,60258.67
2018-09-08T14:10:16.479Z,60257.66
2018-09-08T14:12:45.170Z,60287.12
2018-09-08T14:15:13.437Z,60264.77
2018-09-08T14:17:41.567Z,60277.98
2018-09-08T14:20:09.897Z,60282.04
2018-09-08T14:22:38.178Z,60271.88
2018-09-08T14:25:06.771Z,60277.98
2018-09-08T14:27:34.953Z,60268.83
2018-09-08T14:30:03.408Z,60290.17
2018-09-08T14:32:31.623Z,60273.91
2018-09-08T14:34:59.792Z,60261.72
2018-09-08T14:37:28.086Z,60244.45
2018-09-08T14:39:56.244Z,60282.04
2018-09-08T14:42:24.415Z,60274.93
2018-09-08T14:44:52.592Z,60272.90
2018-09-08T14:47:20.822Z,60295.25
2018-09-08T14:49:49.447Z,60286.11
2018-09-08T14:52:17.644Z,60275.95
2018-09-08T14:54:45.829Z,60269.85
2018-09-08T14:57:14.056Z,60280.01
2018-09-08T14:59:42.290Z,60276.96
2018-09-08T15:02:10.476Z,60273.91
2018-09-08T15:04:38.776Z,60292.21
2018-09-08T15:07:06.886Z,60269.85
2018-09-08T15:09:35.162Z,60275.95
2018-09-08T15:12:03.338Z,60286.11
2018-09-08T15:14:31.510Z,60281.03
2018-09-08T15:16:59.687Z,60298.30
2018-09-08T15:19:27.937Z,60287.12
2018-09-08T15:21:56.064Z,60296.27
2018-09-08T15:24:24.265Z,60274.93
2018-09-08T15:26:52.434Z,60270.87
2018-09-08T15:29:20.675Z,60277.98
2018-09-08T15:31:48.869Z,60272.90
2018-09-08T15:34:17.065Z,60272.90
2018-09-08T15:36:45.241Z,60274.93
2018-09-08T15:39:13.420Z,60285.09
2018-09-08T15:41:41.601Z,60281.03
2018-09-08T15:44:09.792Z,60281.03
2018-09-08T15:46:37.976Z,60306.43
2018-09-08T15:49:06.163Z,60299.32
2018-09-08T15:51:34.426Z,60284.07
2018-09-08T15:54:02.558Z,60324.72
2018-09-08T15:56:30.741Z,60304.40
2018-09-08T15:58:58.922Z,60295.25
2018-09-08T16:01:27.095Z,60301.35
2018-09-08T16:03:55.284Z,60301.35
2018-09-08T16:06:23.468Z,60297.29
2018-09-08T16:08:51.647Z,60272.90
2018-09-08T16:11:19.849Z,60296.27
2018-09-08T16:13:48.007Z,60292.21
2018-09-08T16:16:16.188Z,60287.12
2018-09-08T16:18:44.395Z,60300.34
2018-09-08T16:21:12.588Z,60301.35
2018-09-08T16:23:40.765Z,60297.29
2018-09-08T16:26:08.935Z,60282.04
2018-09-08T16:28:37.211Z,60305.41
2018-09-08T16:31:05.434Z,60288.14
2018-09-08T16:33:33.665Z,60290.17
2018-09-08T16:36:01.863Z,60296.27
2018-09-08T16:38:30.145Z,60306.43
2018-09-08T16:40:58.279Z,60325.74
2018-09-08T16:43:26.492Z,60302.37
2018-09-08T16:45:54.674Z,60300.34
2018-09-08T16:48:22.884Z,60319.64
2018-09-08T16:50:51.140Z,60289.16
2018-09-08T16:53:19.404Z,60305.41
2018-09-08T16:55:47.607Z,60307.45
2018-09-08T16:58:16.643Z,60307.45
2018-09-08T17:00:44.809Z,60327.77
2018-09-08T17:03:13.019Z,60314.56
2018-09-08T17:05:41.212Z,60318.62
2018-09-08T17:08:11.127Z,60295.25
2018-09-08T17:10:39.364Z,60310.50
2018-09-08T17:13:07.559Z,60307.45
2018-09-08T17:15:35.729Z,60314.56
2018-09-08T17:18:04.656Z,60316.59
2018-09-08T17:20:33.087Z,60306.43
2018-09-08T17:23:01.373Z,60334.88
2018-09-08T17:25:29.528Z,60306.43
2018-09-08T17:27:57.671Z,60338.95
2018-09-08T17:30:26.251Z,60302.37
2018-09-08T17:32:54.500Z,60323.71
2018-09-08T17:35:22.852Z,60309.48
2018-09-08T17:37:51.187Z,60348.09
2018-09-08T17:40:19.892Z,60319.64
2018-09-08T17:42:48.126Z,60329.80
2018-09-08T17:45:16.391Z,60343.01
2018-09-08T17:47:44.658Z,60316.59
2018-09-08T17:50:12.835Z,60313.54
2018-09-08T17:52:41.020Z,60320.66
2018-09-08T17:55:09.235Z,60308.46
2018-09-08T17:57:37.504Z,60319.64
2018-09-08T18:00:06.054Z,60357.24
2018-09-08T18:02:34.268Z,60336.91
2018-09-08T18:05:02.459Z,60334.88
2018-09-08T18:07:30.623Z,60324.72
2018-09-08T18:09:58.799Z,60328.79
2018-09-08T18:12:27.166Z,60328.79
2018-09-08T18:14:55.671Z,60317.61
2018-09-08T18:17:24.621Z,60361.30
2018-09-08T18:19:53.006Z,60338.95
2018-09-08T18:22:21.167Z,60336.91
2018-09-08T18:24:49.441Z,60348.09
2018-09-08T18:27:17.647Z,60354.19
2018-09-08T18:29:46.025Z,60344.03
2018-09-08T18:32:15.075Z,60361.30
2018-09-08T18:34:43.350Z,60351.14
2018-09-08T18:37:11.588Z,60336.91
2018-09-08T18:39:39.804Z,60350.12
2018-09-08T18:42:10.263Z,60367.40
2018-09-08T18:44:39.841Z,60337.93
2018-09-08T18:47:09.158Z,60363.34
2018-09-08T18:49:37.427Z,60357.24
2018-09-08T18:52:05.666Z,60329.80
2018-09-08T18:54:33.844Z,60345.04
2018-09-08T18:57:04.069Z,60358.25
2018-09-08T18:59:32.231Z,60353.18
2018-09-08T19:02:00.395Z,60344.03
2018-09-08T19:04:28.561Z,60366.39
2018-09-08T19:06:56.718Z,60354.19
2018-09-08T19:09:24.887Z,60340.98
2018-09-08T19:11:53.047Z,60368.42
2018-09-08T19:14:26.520Z,60353.18
2018-09-08T19:16:54.708Z,60383.66
2018-09-08T19:19:22.877Z,60382.64
2018-09-08T19:21:51.220Z,60369.43
2018-09-08T19:24:25.216Z,60366.39
2018-09-08T19:26:54.147Z,60367.40
2018-09-08T19:29:27.604Z,60363.34
2018-09-08T19:31:55.787Z,60370.45
2018-09-08T19:34:23.980Z,60370.45
2018-09-08T19:36:52.163Z,60373.50
2018-09-08T19:39:20.376Z,60378.58
2018-09-08T19:41:48.581Z,60369.43
2018-09-08T19:44:16.752Z,60367.40
2018-09-08T19:46:50.054Z,60379.59
2018-09-08T19:49:18.215Z,60392.80
2018-09-08T19:51:46.439Z,60363.34
2018-09-08T19:54:14.627Z,60389.76
2018-09-08T19:56:48.227Z,60388.74
2018-09-08T19:59:16.637Z,60383.66
2018-09-08T20:01:44.916Z,60379.59
2018-09-08T20:04:13.249Z,60368.42
2018-09-08T20:06:42.223Z,60386.71
2018-09-08T20:09:10.576Z,60376.55
2018-09-08T20:11:38.759Z,60407.03
2018-09-08T20:14:07.043Z,60370.45
2018-09-08T20:16:35.214Z,60394.84
2018-09-08T20:19:03.403Z,60395.86
2018-09-08T20:21:31.605Z,60398.90
2018-09-08T20:23:59.851Z,60392.80
2018-09-08T20:26:28.101Z,60379.59
2018-09-08T20:28:56.339Z,60375.53
2018-09-08T20:31:24.451Z,60374.52
2018-09-08T20:33:52.627Z,60402.97
2018-09-08T20:36:20.809Z,60388.74
2018-09-08T20:38:48.995Z,60401.95
2018-09-08T20:41:17.196Z,60398.90
2018-09-08T20:43:45.371Z,60390.77
2018-09-08T20:46:13.572Z,60402.97
2018-09-08T20:48:41.735Z,60408.05
2018-09-08T20:51:09.927Z,60397.89
2018-09-08T20:53:38.135Z,60416.18
2018-09-08T20:56:06.371Z,60389.76
2018-09-08T20:58:34.567Z,60398.90
2018-09-08T21:01:02.743Z,60406.02
2018-09-08T21:03:30.942Z,60392.80
2018-09-08T21:05:59.123Z,60416.18
2018-09-08T21:08:27.312Z,60352.16
2018-09-08T21:10:55.505Z,60409.07
2018-09-08T21:13:23.680Z,60401.95
2018-09-08T21:15:51.887Z,60409.07
2018-09-08T21:18:20.076Z,60409.07
2018-09-08T21:20:48.250Z,60379.59
2018-09-08T21:23:16.479Z,60386.71
2018-09-08T21:25:44.666Z,60407.03
2018-09-08T21:28:12.847Z,60410.08
2018-09-08T21:30:41.064Z,60402.97
2018-09-08T21:33:09.261Z,60386.71
2018-09-08T21:35:37.440Z,60384.68
2018-09-08T21:38:05.679Z,60401.95
2018-09-08T21:40:33.872Z,60395.86
2018-09-08T21:43:02.072Z,60406.02
2018-09-08T21:45:30.255Z,60394.84
2018-09-08T21:47:58.461Z,60399.92
2018-09-08T21:50:27.162Z,60395.86
2018-09-08T21:52:55.363Z,60407.03
2018-09-08T21:55:23.544Z,60422.27
2018-09-08T21:57:51.723Z,60394.84
2018-09-08T22:00:19.957Z,60395.86
2018-09-08T22:02:48.140Z,60402.97
2018-09-08T22:05:16.324Z,60425.32
2018-09-08T22:07:44.503Z,60385.69
2018-09-08T22:10:12.686Z,60396.87
2018-09-08T22:12:40.864Z,60410.08
2018-09-08T22:15:09.080Z,60392.80
2018-09-08T22:17:37.254Z,60407.03
2018-09-08T22:20:05.567Z,60381.63
2018-09-08T22:22:33.747Z,60392.80
2018-09-08T22:25:01.966Z,60396.87
2018-09-08T22:27:30.134Z,60431.42
2018-09-08T22:29:58.353Z,60395.86
2018-09-08T22:32:26.537Z,60409.07
2018-09-08T22:34:54.703Z,60421.26
2018-09-08T22:37:22.884Z,60431.42
2018-09-08T22:39:51.169Z,60415.16
2018-09-08T22:42:19.355Z,60416.18
2018-09-08T22:44:47.559Z,60414.14
2018-09-08T22:47:15.778Z,60401.95
2018-09-08T22:49:44.164Z,60417.20
2018-09-08T22:52:12.364Z,60400.93
2018-09-08T22:54:40.619Z,60412.11
2018-09-08T22:57:08.850Z,60402.97
2018-09-08T22:59:37.093Z,60428.37
2018-09-08T23:02:05.220Z,60413.13
2018-09-08T23:04:33.396Z,60378.58
2018-09-08T23:07:01.584Z,60392.80
2018-09-08T23:09:29.769Z,60423.29
2018-09-08T23:11:57.955Z,60431.42
2018-09-08T23:14:26.179Z,60405.00
2018-09-08T23:16:54.383Z,60412.11
2018-09-08T23:19:22.563Z,60412.11
2018-09-08T23:21:50.772Z,60416.18
2018-09-08T23:24:18.988Z,60403.98
2018-09-08T23:26:47.180Z,60422.27
2018-09-08T23:29:15.371Z,60419.23
2018-09-08T23:31:43.556Z,60403.98
2018-09-08T23:34:11.727Z,60411.10
2018-09-08T23:36:39.914Z,60430.40
2018-09-08T23:39:08.172Z,60412.11
2018-09-08T23:41:36.359Z,60406.02
2018-09-08T23:44:04.542Z,60409.07
2018-09-08T23:46:32.749Z,60407.03
2018-09-08T23:49:00.967Z,60419.23
2018-09-08T23:51:29.159Z,60421.26
2018-09-08T23:53:57.347Z,60424.31
2018-09-08T23:56:25.535Z,60417.20
2018-09-08T23:58:53.718Z,60424.31
